WRB - Robins Afb

Pirep is a free, collaborative database of all public and private airports located within the United States. All pilots are welcome to contribute, edit, and improve any airport they have local knowledge about, no registration required.
Are you familiar with this airport? Help out other pilots by adding your local knowledge.
Uploaded photos will be licensed under a CC BY-SA 4.0 license. Please only upload photos you have the rights to use.
Tags
Undocu­mented
METAR / TAF
Edit Tags
Food
Camping
Lodging
Car Rental
Bicycles
Swimming
Golfing
Fishing
Hot Springs
Museum
Flying Clubs
Airpark
Upcoming Events
No upcoming events. Is anything happening here soon?
*
*
*

Where exactly on/near the airport is this event taking place?

Is there a webpage with more information for this event?

Who should be contacted for more information?

What is this event all about?

Repeat every
Description
Transient Parking
Fuel Location
Landing & Tie-down Fees
Crew Car Availability
Flying Clubs
WiFi Access
Airport Statistics
Location: Warner Robins, GA
Elevation: 294ft
Sectional: Atlanta
Activation date: Sep 1943
Fuel: A++ (prices)
Runway 15/33: 12,001ft
Access: Private to everyone
This is a military facility.
Current Weather — VFR
  • Weather data is strictly informational and not for flight planning purposes.
  • METAR
    2024-02-25 15:55:00 EST
    Ceiling Wind Temperature Dewpoint Weather Visbility
    Sky clear 250° @ 3kt 64°F 18°F N/A 10SM
    Raw: KWRB 252055Z AUTO 25003KT 10SM CLR 18/M07 A3013 RMK AO2 SLP206 T01821073 57021 $
  • TAF
    2024-02-25 11:00:00 EST – 2024-02-26 11:00:00 EST
    Ceiling Wind Weather Visbility
    Sky clear Variable N/A 6SM
    Clouds: @ ft
    Raw: TAF KWRB 251600Z 2516/2622 VRB06KT 9999 SKC QNH3014INS BECMG 2616/2617 20010G15KT 9999 SKC QNH3021INS TX18/2521Z TN01/2612Z
  • TAF
    2024-02-26 11:00:00 EST – 2024-02-26 17:00:00 EST
    Ceiling Wind Weather Visbility
    Sky clear 200° @ 10kt, gusts 15kt N/A 6SM
    Clouds: @ ft
    Raw: TAF KWRB 251600Z 2516/2622 VRB06KT 9999 SKC QNH3014INS BECMG 2616/2617 20010G15KT 9999 SKC QNH3021INS TX18/2521Z TN01/2612Z
Click/tap to add an annotation marker to the map
Airport Webcams
No webcams added yet.
Direct links to live image URLs will be displayed inline on this page. URLs to separate webpages will be linked to.
URL:
Direct links to live image URLs will be displayed inline on this page. URLs to separate webpages will be linked to.
URL:
Remarks
  • Caution: on apch rwy 15, do not mistake middle georgia rgnl arpt 3.3 nm nw for robins afb.
  • Jasu: 2(a/m-60) 9(a/m323a-86)
  • Caution: bird watch cond-phase ii fr nov thru mar fr sr-30 to sr+60 and ss-30 to ss+60; dates are subject to change with the migratory season. see notams for updates.
  • Ns abtmt: strict adherence to procedure, acft rstd to full stop only between 0300-1100z++.
  • Fuel: a++
Comments
Leave a comment What was your experience like at this airport?